createdAt,value
2023-01-29T00:00:09.627Z,-2.03
2023-01-29T00:02:47.760Z,-2.06
2023-01-29T00:05:28.470Z,-2.18
2023-01-29T00:08:01.603Z,-2.20
2023-01-29T00:10:33.639Z,-2.21
2023-01-29T00:13:05.693Z,-2.08
2023-01-29T00:15:38.411Z,-2.16
2023-01-29T00:18:10.517Z,-2.02
2023-01-29T00:20:42.922Z,-2.24
2023-01-29T00:23:15.346Z,-2.21
2023-01-29T00:25:47.508Z,-2.06
2023-01-29T00:28:19.608Z,-1.87
2023-01-29T00:30:52.322Z,-1.82
2023-01-29T00:33:24.640Z,-1.79
2023-01-29T00:35:57.546Z,-1.91
2023-01-29T00:38:29.626Z,-2.07
2023-01-29T00:41:24.611Z,-2.24
2023-01-29T00:44:14.916Z,-2.28
2023-01-29T00:46:47.883Z,-2.14
2023-01-29T00:49:20.070Z,-2.36
2023-01-29T00:52:06.836Z,-2.27
2023-01-29T00:54:38.870Z,-2.04
2023-01-29T00:57:10.997Z,-2.06
2023-01-29T00:59:43.002Z,-1.97
2023-01-29T01:02:34.091Z,-2.07
2023-01-29T01:05:09.535Z,-1.90
2023-01-29T01:07:41.607Z,-1.88
2023-01-29T01:10:20.423Z,-1.94
2023-01-29T01:12:54.612Z,-2.27
2023-01-29T01:15:27.985Z,-2.07
2023-01-29T01:18:01.646Z,-2.19
2023-01-29T01:20:34.683Z,-2.03
2023-01-29T01:23:07.562Z,-1.89
2023-01-29T01:25:39.677Z,-1.82
2023-01-29T01:28:12.199Z,-1.71
2023-01-29T01:30:44.356Z,-1.67
2023-01-29T01:33:17.229Z,-1.60
2023-01-29T01:35:50.412Z,-1.54
2023-01-29T01:38:22.634Z,-1.49
2023-01-29T01:40:54.708Z,-1.44
2023-01-29T01:43:26.776Z,-1.37
2023-01-29T01:45:58.905Z,-1.31
2023-01-29T01:48:33.125Z,-1.31
2023-01-29T01:51:05.838Z,-1.29
2023-01-29T01:53:49.552Z,-1.30
2023-01-29T01:56:24.603Z,-1.28
2023-01-29T01:58:58.212Z,-1.28
2023-01-29T02:01:30.348Z,-1.29
2023-01-29T02:04:24.160Z,-1.58
2023-01-29T02:07:16.321Z,-1.57
2023-01-29T02:09:51.985Z,-1.62
2023-01-29T02:12:24.502Z,-1.55
2023-01-29T02:14:56.744Z,-1.51
2023-01-29T02:17:28.850Z,-1.47
2023-01-29T02:20:06.073Z,-1.49
2023-01-29T02:22:58.445Z,-1.41
2023-01-29T02:25:48.324Z,-1.35
2023-01-29T02:28:26.016Z,-1.26
2023-01-29T02:31:01.453Z,-1.23
2023-01-29T02:33:41.794Z,-1.20
2023-01-29T02:36:18.072Z,-1.19
2023-01-29T02:38:53.510Z,-1.17
2023-01-29T02:41:28.643Z,-1.11
2023-01-29T02:44:05.976Z,-1.19
2023-01-29T02:46:42.127Z,-1.24
2023-01-29T02:49:19.492Z,-1.19
2023-01-29T02:51:56.788Z,-1.18
2023-01-29T02:54:32.700Z,-1.47
2023-01-29T02:57:06.968Z,-1.29
2023-01-29T02:59:42.099Z,-1.20
2023-01-29T03:02:18.444Z,-1.14
2023-01-29T03:04:53.601Z,-1.08
2023-01-29T03:07:41.728Z,-1.05
2023-01-29T03:10:19.359Z,-0.97
2023-01-29T03:12:54.900Z,-0.97
2023-01-29T03:15:30.114Z,-1.06
2023-01-29T03:18:27.142Z,-1.02
2023-01-29T03:21:25.104Z,-1.19
2023-01-29T03:24:17.584Z,-1.33
2023-01-29T03:27:07.869Z,-1.20
2023-01-29T03:30:02.109Z,-1.26
2023-01-29T03:32:53.722Z,-1.38
2023-01-29T03:35:34.734Z,-1.32
2023-01-29T03:38:09.286Z,-1.28
2023-01-29T03:40:52.581Z,-1.27
2023-01-29T03:43:32.307Z,-1.24
2023-01-29T03:46:07.908Z,-1.19
2023-01-29T03:48:45.310Z,-1.26
2023-01-29T03:51:22.159Z,-1.53
2023-01-29T03:53:58.418Z,-1.48
2023-01-29T03:56:36.502Z,-1.38
2023-01-29T03:59:16.193Z,-1.33
2023-01-29T04:02:10.154Z,-1.36
2023-01-29T04:04:45.097Z,-1.28
2023-01-29T04:07:23.033Z,-1.51
2023-01-29T04:10:00.397Z,-1.38
2023-01-29T04:12:37.719Z,-1.38
2023-01-29T04:15:13.993Z,-1.39
2023-01-29T04:17:48.468Z,-1.39
2023-01-29T04:20:28.820Z,-1.30
2023-01-29T04:23:01.452Z,-1.37
2023-01-29T04:25:38.984Z,-1.36
2023-01-29T04:28:16.487Z,-1.29
2023-01-29T04:30:54.057Z,-1.24
2023-01-29T04:33:32.123Z,-1.18
2023-01-29T04:36:13.067Z,-1.16
2023-01-29T04:38:50.485Z,-1.10
2023-01-29T04:41:27.332Z,-1.10
2023-01-29T04:44:02.733Z,-1.11
2023-01-29T04:46:41.497Z,-1.07
2023-01-29T04:49:18.312Z,-1.02
2023-01-29T04:51:57.850Z,-1.00
2023-01-29T04:54:34.574Z,-0.96
2023-01-29T04:57:10.555Z,-1.01
2023-01-29T04:59:44.787Z,-1.13
2023-01-29T05:02:18.169Z,-1.23
2023-01-29T05:04:50.402Z,-1.19
2023-01-29T05:07:24.112Z,-1.15
2023-01-29T05:09:56.467Z,-1.14
2023-01-29T05:12:29.801Z,-1.08
2023-01-29T05:15:02.987Z,-1.08
2023-01-29T05:17:35.281Z,-1.08
2023-01-29T05:20:08.206Z,-1.03
2023-01-29T05:22:41.629Z,-1.05
2023-01-29T05:25:19.538Z,-1.02
2023-01-29T05:28:03.673Z,-0.96
2023-01-29T05:30:37.111Z,-0.93
2023-01-29T05:33:11.782Z,-0.93
2023-01-29T05:35:44.225Z,-1.03
2023-01-29T05:38:17.477Z,-0.97
2023-01-29T05:40:49.710Z,-0.95
2023-01-29T05:43:23.311Z,-0.91
2023-01-29T05:45:56.427Z,-0.88
2023-01-29T05:48:29.230Z,-0.85
2023-01-29T05:51:02.005Z,-0.83
2023-01-29T05:53:34.814Z,-0.82
2023-01-29T05:56:07.144Z,-0.84
2023-01-29T05:58:39.600Z,-1.00
2023-01-29T06:01:12.288Z,-0.96
2023-01-29T06:03:44.485Z,-0.90
2023-01-29T06:06:16.945Z,-0.92
2023-01-29T06:08:49.868Z,-0.85
2023-01-29T06:11:21.973Z,-0.87
2023-01-29T06:13:54.070Z,-0.87
2023-01-29T06:16:26.193Z,-0.88
2023-01-29T06:18:58.296Z,-0.92
2023-01-29T06:21:30.359Z,-1.11
2023-01-29T06:24:03.320Z,-1.09
2023-01-29T06:26:35.327Z,-1.00
2023-01-29T06:29:07.367Z,-0.96
2023-01-29T06:31:40.089Z,-0.92
2023-01-29T06:34:12.253Z,-0.92
2023-01-29T06:36:44.300Z,-0.89
2023-01-29T06:39:17.088Z,-0.89
2023-01-29T06:41:49.226Z,-0.91
2023-01-29T06:44:21.336Z,-0.88
2023-01-29T06:46:53.519Z,-0.86
2023-01-29T06:49:25.553Z,-0.86
2023-01-29T06:51:57.823Z,-0.85
2023-01-29T06:54:30.592Z,-0.79
2023-01-29T06:57:02.669Z,-0.78
2023-01-29T06:59:34.877Z,-0.79
2023-01-29T07:02:06.933Z,-0.78
2023-01-29T07:04:40.968Z,-0.77
2023-01-29T07:07:13.014Z,-0.86
2023-01-29T07:09:45.761Z,-0.83
2023-01-29T07:12:18.027Z,-0.79
2023-01-29T07:14:50.175Z,-0.81
2023-01-29T07:17:22.259Z,-0.73
2023-01-29T07:19:54.242Z,-0.72
2023-01-29T07:22:26.322Z,-0.68
2023-01-29T07:24:59.040Z,-0.65
2023-01-29T07:27:31.088Z,-0.57
2023-01-29T07:30:03.336Z,-0.64
2023-01-29T07:32:35.424Z,-0.70
2023-01-29T07:35:07.992Z,-0.83
2023-01-29T07:37:40.114Z,-0.76
2023-01-29T07:40:13.269Z,-0.76
2023-01-29T07:42:45.410Z,-0.83
2023-01-29T07:45:17.635Z,-0.86
2023-01-29T07:47:51.756Z,-0.84
2023-01-29T07:50:24.323Z,-0.88
2023-01-29T07:52:56.610Z,-1.15
2023-01-29T07:55:29.309Z,-1.19
2023-01-29T07:58:02.351Z,-1.22
2023-01-29T08:00:34.634Z,-1.16
2023-01-29T08:03:07.691Z,-1.17
2023-01-29T08:05:39.744Z,-1.22
2023-01-29T08:08:12.043Z,-1.13
2023-01-29T08:10:44.724Z,-0.99
2023-01-29T08:13:16.830Z,-0.85
2023-01-29T08:15:49.008Z,-0.77
2023-01-29T08:18:21.085Z,-0.71
2023-01-29T08:20:53.684Z,-0.65
2023-01-29T08:23:25.775Z,-0.74
2023-01-29T08:25:58.504Z,-0.64
2023-01-29T08:28:30.586Z,-0.61
2023-01-29T08:31:02.704Z,-0.53
2023-01-29T08:33:38.977Z,-0.52
2023-01-29T08:36:11.459Z,-0.60
2023-01-29T08:38:43.569Z,-0.76
2023-01-29T08:41:16.309Z,-0.78
2023-01-29T08:43:48.785Z,-0.71
2023-01-29T08:46:21.004Z,-0.74
2023-01-29T08:48:53.144Z,-0.65
2023-01-29T08:51:25.964Z,-0.80
2023-01-29T08:53:59.035Z,-0.95
2023-01-29T08:56:31.796Z,-0.92
2023-01-29T08:59:03.796Z,-0.90
2023-01-29T09:01:36.107Z,-1.04
2023-01-29T09:04:08.160Z,-1.03
2023-01-29T09:06:40.249Z,-0.99
2023-01-29T09:09:13.670Z,-1.10
2023-01-29T09:11:46.458Z,-1.12
2023-01-29T09:14:18.520Z,-1.01
2023-01-29T09:16:50.619Z,-0.95
2023-01-29T09:19:22.832Z,-0.98
2023-01-29T09:21:54.896Z,-0.85
2023-01-29T09:24:26.878Z,-0.74
2023-01-29T09:26:59.630Z,-0.67
2023-01-29T09:29:33.048Z,-0.61
2023-01-29T09:32:07.019Z,-0.55
2023-01-29T09:34:39.169Z,-0.49
2023-01-29T09:37:11.304Z,-0.45
2023-01-29T09:39:43.337Z,-0.39
2023-01-29T09:42:19.109Z,-0.35
2023-01-29T09:44:56.455Z,-0.35
2023-01-29T09:47:29.704Z,-0.31
2023-01-29T09:50:05.463Z,-0.31
2023-01-29T09:52:40.616Z,-0.29
2023-01-29T09:55:19.379Z,-0.25
2023-01-29T09:57:53.329Z,-0.21
2023-01-29T10:00:31.050Z,-0.36
2023-01-29T10:03:14.032Z,-0.57
2023-01-29T10:05:59.914Z,-0.54
2023-01-29T10:08:41.159Z,-0.48
2023-01-29T10:11:20.030Z,-0.46
2023-01-29T10:13:58.788Z,-0.50
2023-01-29T10:16:41.251Z,-0.62
2023-01-29T10:19:40.422Z,-0.69
2023-01-29T10:22:26.342Z,-0.72
2023-01-29T10:25:00.382Z,-0.74
2023-01-29T10:27:33.700Z,-0.69
2023-01-29T10:30:09.356Z,-0.67
2023-01-29T10:32:41.369Z,-0.85
2023-01-29T10:35:19.907Z,-0.75
2023-01-29T10:37:52.916Z,-0.77
2023-01-29T10:40:32.328Z,-0.81
2023-01-29T10:43:06.616Z,-0.66
2023-01-29T10:45:42.307Z,-0.65
2023-01-29T10:48:33.313Z,-0.69
2023-01-29T10:51:13.814Z,-0.66
2023-01-29T10:53:53.138Z,-0.78
2023-01-29T10:56:33.038Z,-0.93
2023-01-29T10:59:08.123Z,-0.85
2023-01-29T11:01:40.932Z,-0.91
2023-01-29T11:04:13.831Z,-0.89
2023-01-29T11:06:46.164Z,-0.93
2023-01-29T11:09:24.305Z,-0.91
2023-01-29T11:11:57.945Z,-1.07
2023-01-29T11:14:33.153Z,-1.07
2023-01-29T11:17:05.923Z,-1.01
2023-01-29T11:19:38.722Z,-0.92
2023-01-29T11:22:13.055Z,-0.96
2023-01-29T11:24:45.582Z,-0.88
2023-01-29T11:27:22.880Z,-0.92
2023-01-29T11:29:55.295Z,-0.77
2023-01-29T11:32:30.103Z,-0.73
2023-01-29T11:35:03.427Z,-0.74
2023-01-29T11:37:36.491Z,-0.64
2023-01-29T11:40:27.232Z,-0.53
2023-01-29T11:43:11.106Z,-0.42
2023-01-29T11:45:43.255Z,-0.43
2023-01-29T11:48:16.893Z,-0.46
2023-01-29T11:50:53.372Z,-0.42
2023-01-29T11:53:31.466Z,-0.33
2023-01-29T11:56:05.825Z,-0.29
2023-01-29T11:58:37.875Z,-0.20
2023-01-29T12:01:26.135Z,-0.20
2023-01-29T12:04:12.169Z,-0.12
2023-01-29T12:06:48.290Z,-0.06
2023-01-29T12:09:21.769Z,-0.02
2023-01-29T12:11:53.908Z,0.02
2023-01-29T12:14:32.801Z,0.07
2023-01-29T12:17:08.932Z,0.06
2023-01-29T12:19:43.940Z,0.13
2023-01-29T12:22:20.155Z,0.18
2023-01-29T12:24:54.767Z,0.19
2023-01-29T12:27:30.756Z,0.29
2023-01-29T12:30:07.183Z,0.29
2023-01-29T12:32:43.896Z,0.29
2023-01-29T12:35:19.746Z,0.29
2023-01-29T12:37:55.358Z,0.25
2023-01-29T12:40:29.456Z,0.23
2023-01-29T12:43:04.200Z,0.18
2023-01-29T12:45:36.813Z,0.20
2023-01-29T12:48:11.820Z,0.22
2023-01-29T12:50:45.600Z,0.24
2023-01-29T12:53:25.179Z,0.26
2023-01-29T12:55:59.468Z,0.23
2023-01-29T12:58:33.950Z,0.21
2023-01-29T13:01:11.895Z,0.13
2023-01-29T13:03:48.606Z,0.16
2023-01-29T13:06:25.162Z,0.17
2023-01-29T13:08:59.143Z,0.18
2023-01-29T13:11:36.355Z,0.19
2023-01-29T13:14:13.210Z,0.19
2023-01-29T13:16:47.447Z,-0.06
2023-01-29T13:19:26.921Z,0.24
2023-01-29T13:22:01.459Z,0.29
2023-01-29T13:24:36.313Z,0.35
2023-01-29T13:27:18.483Z,0.28
2023-01-29T13:29:50.718Z,0.24
2023-01-29T13:32:24.672Z,0.30
2023-01-29T13:34:58.367Z,0.36
2023-01-29T13:37:32.911Z,0.34
2023-01-29T13:40:06.839Z,0.38
2023-01-29T13:42:42.370Z,0.37
2023-01-29T13:45:19.831Z,0.39
2023-01-29T13:47:52.597Z,0.43
2023-01-29T13:50:29.550Z,0.48
2023-01-29T13:53:03.379Z,0.44
2023-01-29T13:55:36.908Z,0.31
2023-01-29T13:58:14.945Z,0.19
2023-01-29T14:00:50.471Z,0.16
2023-01-29T14:04:04.591Z,0.15
2023-01-29T14:06:55.259Z,-0.15
2023-01-29T14:09:54.627Z,-0.34
2023-01-29T14:12:43.988Z,-0.46
2023-01-29T14:15:23.789Z,-0.64
2023-01-29T14:18:04.394Z,-0.76
2023-01-29T14:20:45.689Z,-0.81
2023-01-29T14:23:29.655Z,-0.77
2023-01-29T14:26:04.068Z,-0.88
2023-01-29T14:28:37.052Z,-1.00
2023-01-29T14:31:10.060Z,-1.13
2023-01-29T14:33:43.565Z,-1.16
2023-01-29T14:36:17.648Z,-1.02
2023-01-29T14:38:51.915Z,-1.16
2023-01-29T14:41:28.948Z,-1.21
2023-01-29T14:44:19.939Z,-1.07
2023-01-29T14:46:53.207Z,-1.13
2023-01-29T14:49:44.065Z,-1.24
2023-01-29T14:52:18.418Z,-1.15
2023-01-29T14:54:52.092Z,-1.18
2023-01-29T14:57:24.555Z,-1.00
2023-01-29T14:59:58.711Z,-0.87
2023-01-29T15:02:37.708Z,-0.84
2023-01-29T15:05:11.714Z,-0.74
2023-01-29T15:07:47.176Z,-0.61
2023-01-29T15:10:23.245Z,-0.57
2023-01-29T15:12:59.795Z,-0.52
2023-01-29T15:15:36.092Z,-0.42
2023-01-29T15:18:13.132Z,-0.35
2023-01-29T15:20:45.206Z,-0.28
2023-01-29T15:23:24.498Z,-0.21
2023-01-29T15:25:58.244Z,-0.16
2023-01-29T15:28:31.511Z,-0.11
2023-01-29T15:31:04.667Z,-0.09
2023-01-29T15:33:38.137Z,-0.16
2023-01-29T15:36:16.641Z,-0.28
2023-01-29T15:38:49.003Z,-0.31
2023-01-29T15:41:23.063Z,-0.30
2023-01-29T15:43:57.411Z,-0.26
2023-01-29T15:46:30.497Z,-0.24
2023-01-29T15:49:06.621Z,-0.31
2023-01-29T15:51:38.996Z,-0.26
2023-01-29T15:54:15.738Z,-0.32
2023-01-29T15:56:50.542Z,-0.32
2023-01-29T15:59:24.902Z,-0.32
2023-01-29T16:01:57.687Z,-0.36
2023-01-29T16:04:31.095Z,-0.38
2023-01-29T16:07:03.665Z,-0.39
2023-01-29T16:09:35.800Z,-0.34
2023-01-29T16:12:10.506Z,-0.36
2023-01-29T16:14:43.245Z,-0.36
2023-01-29T16:17:22.496Z,-0.34
2023-01-29T16:19:55.960Z,-0.31
2023-01-29T16:22:31.145Z,-0.24
2023-01-29T16:25:03.708Z,-0.20
2023-01-29T16:27:35.910Z,-0.19
2023-01-29T16:30:09.480Z,-0.17
2023-01-29T16:32:42.089Z,-0.20
2023-01-29T16:35:15.589Z,-0.21
2023-01-29T16:37:48.695Z,-0.20
2023-01-29T16:40:25.968Z,-0.17
2023-01-29T16:43:13.715Z,-0.17
2023-01-29T16:46:01.443Z,-0.12
2023-01-29T16:48:34.763Z,-0.11
2023-01-29T16:51:12.855Z,-0.05
2023-01-29T16:53:55.861Z,-0.06
2023-01-29T16:56:29.147Z,-0.06
2023-01-29T16:59:02.553Z,-0.11
2023-01-29T17:01:35.703Z,-0.10
2023-01-29T17:04:10.317Z,-0.08
2023-01-29T17:06:45.061Z,-0.07
2023-01-29T17:09:20.550Z,-0.08
2023-01-29T17:11:55.243Z,-0.08
2023-01-29T17:14:30.164Z,-0.06
2023-01-29T17:17:03.688Z,-0.07
2023-01-29T17:19:35.762Z,-0.06
2023-01-29T17:22:13.974Z,-0.08
2023-01-29T17:24:46.039Z,-0.06
2023-01-29T17:27:19.193Z,-0.06
2023-01-29T17:29:52.697Z,-0.07
2023-01-29T17:32:27.073Z,-0.05
2023-01-29T17:35:17.624Z,-0.08
2023-01-29T17:37:50.625Z,-0.09
2023-01-29T17:40:28.217Z,-0.14
2023-01-29T17:43:00.293Z,-0.13
2023-01-29T17:45:33.877Z,-0.17
2023-01-29T17:48:11.301Z,-0.23
2023-01-29T17:50:47.634Z,-0.23
2023-01-29T17:53:20.529Z,-0.26
2023-01-29T17:55:52.685Z,-0.38
2023-01-29T17:58:25.807Z,-0.39
2023-01-29T18:00:57.863Z,-0.40
2023-01-29T18:03:29.898Z,-0.45
2023-01-29T18:06:02.003Z,-0.55
2023-01-29T18:08:36.526Z,-0.52
2023-01-29T18:11:10.863Z,-0.51
2023-01-29T18:13:42.896Z,-0.52
2023-01-29T18:16:15.307Z,-0.57
2023-01-29T18:18:47.511Z,-0.69
2023-01-29T18:21:19.547Z,-0.81
2023-01-29T18:23:52.584Z,-0.80
2023-01-29T18:26:24.683Z,-0.90
2023-01-29T18:28:57.000Z,-1.08
2023-01-29T18:31:29.139Z,-1.01
2023-01-29T18:34:01.473Z,-1.01
2023-01-29T18:36:34.443Z,-1.01
2023-01-29T18:39:07.326Z,-0.97
2023-01-29T18:41:39.428Z,-0.96
2023-01-29T18:44:11.752Z,-1.11
2023-01-29T18:46:44.140Z,-1.17
2023-01-29T18:49:16.410Z,-1.06
2023-01-29T18:51:48.457Z,-1.06
2023-01-29T18:54:21.135Z,-1.02
2023-01-29T18:57:06.188Z,-0.96
2023-01-29T18:59:45.452Z,-0.96
2023-01-29T19:02:18.532Z,-0.93
2023-01-29T19:04:51.079Z,-0.86
2023-01-29T19:07:23.162Z,-0.92
2023-01-29T19:09:56.006Z,-1.06
2023-01-29T19:12:28.185Z,-1.15
2023-01-29T19:15:00.464Z,-1.19
2023-01-29T19:17:32.518Z,-1.17
2023-01-29T19:20:04.909Z,-1.36
2023-01-29T19:22:36.981Z,-1.23
2023-01-29T19:25:10.247Z,-1.31
2023-01-29T19:27:42.386Z,-1.29
2023-01-29T19:30:14.705Z,-1.26
2023-01-29T19:32:46.736Z,-1.31
2023-01-29T19:35:19.200Z,-1.40
2023-01-29T19:37:51.562Z,-1.46
2023-01-29T19:40:24.283Z,-1.41
2023-01-29T19:42:56.329Z,-1.45
2023-01-29T19:45:37.331Z,-1.60
2023-01-29T19:48:21.827Z,-1.48
2023-01-29T19:50:55.334Z,-1.46
2023-01-29T19:53:28.733Z,-1.46
2023-01-29T19:56:03.940Z,-1.70
2023-01-29T19:58:36.364Z,-1.54
2023-01-29T20:01:13.471Z,-1.50
2023-01-29T20:03:46.552Z,-1.44
2023-01-29T20:06:19.967Z,-1.42
2023-01-29T20:08:53.140Z,-1.38
2023-01-29T20:11:26.009Z,-1.37
2023-01-29T20:13:58.227Z,-1.53
2023-01-29T20:16:30.506Z,-1.72
2023-01-29T20:19:14.234Z,-1.72
2023-01-29T20:21:48.181Z,-1.86
2023-01-29T20:24:20.288Z,-1.95
2023-01-29T20:26:53.504Z,-2.01
2023-01-29T20:29:25.839Z,-2.05
2023-01-29T20:31:59.597Z,-2.06
2023-01-29T20:34:31.774Z,-1.87
2023-01-29T20:37:03.944Z,-1.79
2023-01-29T20:39:36.142Z,-1.82
2023-01-29T20:42:08.913Z,-1.83
2023-01-29T20:44:41.746Z,-1.90
2023-01-29T20:47:14.741Z,-1.79
2023-01-29T20:49:46.913Z,-1.96
2023-01-29T20:52:19.092Z,-1.88
2023-01-29T20:54:51.304Z,-1.88
2023-01-29T20:57:24.170Z,-1.89
2023-01-29T20:59:56.227Z,-1.87
2023-01-29T21:02:28.377Z,-1.99
2023-01-29T21:05:00.941Z,-1.92
2023-01-29T21:07:33.344Z,-1.91
2023-01-29T21:10:05.876Z,-1.79
2023-01-29T21:12:38.602Z,-1.81
2023-01-29T21:15:10.762Z,-1.76
2023-01-29T21:17:42.865Z,-1.78
2023-01-29T21:20:15.470Z,-1.76
2023-01-29T21:22:48.411Z,-2.00
2023-01-29T21:25:20.821Z,-1.67
2023-01-29T21:27:53.665Z,-1.61
2023-01-29T21:30:26.347Z,-1.56
2023-01-29T21:32:58.350Z,-1.50
2023-01-29T21:35:30.802Z,-1.42
2023-01-29T21:38:03.299Z,-1.37
2023-01-29T21:40:35.385Z,-1.35
2023-01-29T21:43:11.918Z,-1.51
2023-01-29T21:45:44.042Z,-1.37
2023-01-29T21:48:16.085Z,-1.32
2023-01-29T21:50:48.199Z,-1.36
2023-01-29T21:53:20.175Z,-1.37
2023-01-29T21:55:52.375Z,-1.38
2023-01-29T21:58:25.073Z,-1.52
2023-01-29T22:00:57.316Z,-1.59
2023-01-29T22:03:49.328Z,-1.51
2023-01-29T22:06:21.448Z,-1.48
2023-01-29T22:08:53.530Z,-1.66
2023-01-29T22:11:25.779Z,-1.73
2023-01-29T22:13:58.756Z,-1.74
2023-01-29T22:16:31.005Z,-1.73
2023-01-29T22:19:03.038Z,-1.81
2023-01-29T22:21:36.019Z,-1.85
2023-01-29T22:24:08.225Z,-2.13
2023-01-29T22:26:40.371Z,-2.38
2023-01-29T22:29:13.803Z,-2.17
2023-01-29T22:31:45.973Z,-2.03
2023-01-29T22:34:17.976Z,-1.91
2023-01-29T22:36:50.348Z,-1.86
2023-01-29T22:39:22.428Z,-1.81
2023-01-29T22:41:54.486Z,-1.68
2023-01-29T22:44:27.154Z,-1.63
2023-01-29T22:46:59.885Z,-1.58
2023-01-29T22:49:32.348Z,-1.57
2023-01-29T22:52:10.622Z,-1.46
2023-01-29T22:54:43.269Z,-1.93
2023-01-29T22:57:15.368Z,-1.81
2023-01-29T22:59:48.035Z,-1.76
2023-01-29T23:02:20.104Z,-2.25
2023-01-29T23:04:52.153Z,-2.02
2023-01-29T23:07:24.302Z,-2.14
2023-01-29T23:09:56.374Z,-2.28
2023-01-29T23:12:28.864Z,-2.45
2023-01-29T23:15:01.580Z,-2.22
2023-01-29T23:17:33.923Z,-2.41
2023-01-29T23:20:06.560Z,-2.59
2023-01-29T23:22:38.595Z,-2.50
2023-01-29T23:25:10.580Z,-2.63
2023-01-29T23:27:42.404Z,-2.57
2023-01-29T23:30:15.837Z,-2.44
2023-01-29T23:32:48.270Z,-2.44
2023-01-29T23:35:20.307Z,-2.47
2023-01-29T23:37:52.364Z,-2.40
2023-01-29T23:40:24.384Z,-2.50
2023-01-29T23:42:56.480Z,-2.37
2023-01-29T23:45:29.164Z,-2.52
2023-01-29T23:48:01.725Z,-2.44
2023-01-29T23:50:33.791Z,-2.38
2023-01-29T23:53:05.885Z,-2.28
2023-01-29T23:55:38.228Z,-2.38
2023-01-29T23:58:10.387Z,-2.25
